Wednesday, February 22, 2017, 12:29 PM EST

KFDK, Frederick, Frederick Municipal Airport

Location: Frederick, MD, United States Lat: 39.417
Local Time: 12:29 PM EST (17:29 GMT) Lon: -77.374
Time Zone: US/Eastern Elev: 301 ft

Show me the last for .
Show Decoded

2017-02-22 11:47 METAR KFDK 221647Z 23004KT 10SM BKN070 BKN080 13/06 A3001 =
2017-02-22 10:47 METAR KFDK 221547Z 23003KT 10SM CLR 11/06 A3002 =
2017-02-22 09:47 METAR KFDK 221447Z 21005KT 10SM CLR 09/06 A3005 =
2017-02-22 08:48 METAR KFDK 221348Z 00000KT 10SM SCT110 08/06 A3006 =
2017-02-22 07:48 METAR KFDK 221248Z 00000KT 10SM SCT095 05/05 A3007 =
2017-02-22 06:55 METAR KFDK 221155Z AUTO 00000KT 10SM SCT100 SCT120 03/03 A3005 RMK AO2 =
2017-02-22 06:48 METAR KFDK 221148Z 00000KT 10SM SCT100 BKN120 04/04 A3005 =
2017-02-22 06:35 METAR KFDK 221135Z AUTO 00000KT 10SM BKN100 BKN120 03/03 A3005 RMK AO2 =
2017-02-22 06:15 METAR KFDK 221115Z AUTO 00000KT 10SM OVC110 03/03 A3005 RMK AO2 =
2017-02-22 05:55 METAR KFDK 221055Z AUTO 00000KT 10SM SCT100 OVC110 03/03 A3005 RMK AO2 =
2017-02-22 05:35 METAR KFDK 221035Z AUTO 00000KT 10SM BKN100 04/04 A3005 RMK AO2 =
2017-02-22 05:15 METAR KFDK 221015Z AUTO 00000KT 10SM SCT110 04/04 A3005 RMK AO2 =
2017-02-22 04:55 METAR KFDK 220955Z AUTO 00000KT 10SM CLR 05/04 A3005 RMK AO2 =
2017-02-22 04:30 METAR KFDK 220930Z AUTO 00000KT 10SM SCT100 04/02 A3004 RMK AO2 =
2017-02-22 04:15 METAR KFDK 220915Z AUTO 00000KT 10SM CLR 05/03 A3005 RMK AO2 =
2017-02-22 03:55 METAR KFDK 220855Z AUTO 00000KT 10SM CLR 05/03 A3005 RMK AO2 =
2017-02-22 03:35 METAR KFDK 220835Z AUTO 00000KT 10SM CLR 06/03 A3005 RMK AO2 =
2017-02-22 03:15 METAR KFDK 220815Z AUTO 19003KT 10SM CLR 07/03 A3006 RMK AO2 =
2017-02-22 02:55 METAR KFDK 220755Z AUTO 22004KT 10SM CLR 07/03 A3006 RMK AO2 =
2017-02-22 02:35 METAR KFDK 220735Z AUTO 19004KT 10SM CLR 07/03 A3006 RMK AO2 =
2017-02-22 02:15 METAR KFDK 220715Z AUTO 19004KT 10SM CLR 07/03 A3007 RMK AO2 =
2017-02-22 01:55 METAR KFDK 220655Z AUTO 16003KT 10SM CLR 07/03 A3007 RMK AO2 =
2017-02-22 01:35 METAR KFDK 220635Z AUTO 00000KT 10SM CLR 07/03 A3009 RMK AO2 =
2017-02-22 01:15 METAR KFDK 220615Z AUTO 18003KT 10SM CLR 07/03 A3010 RMK AO2 =
2017-02-22 00:55 METAR KFDK 220555Z AUTO 19003KT 10SM CLR 07/03 A3010 RMK AO2 =
2017-02-22 00:35 METAR KFDK 220535Z AUTO 00000KT 10SM CLR 07/03 A3011 RMK AO2 =
2017-02-22 00:15 METAR KFDK 220515Z AUTO 17003KT 10SM CLR 07/02 A3011 RMK AO2 =
2017-02-21 23:55 METAR KFDK 220455Z AUTO 00000KT 10SM CLR 07/02 A3012 RMK AO2 =
2017-02-21 23:35 METAR KFDK 220435Z AUTO 00000KT 10SM CLR 06/02 A3013 RMK AO2 =
2017-02-21 23:15 METAR KFDK 220415Z AUTO 00000KT 10SM CLR 06/02 A3013 RMK AO2 =
2017-02-21 22:55 METAR KFDK 220355Z AUTO 00000KT 10SM CLR 06/02 A3014 RMK AO2 =
2017-02-21 22:35 METAR KFDK 220335Z AUTO 00000KT 10SM CLR 06/02 A3014 RMK AO2 =
2017-02-21 22:15 METAR KFDK 220315Z AUTO 00000KT 10SM CLR 06/02 A3014 RMK AO2 =
2017-02-21 21:55 METAR KFDK 220255Z AUTO 00000KT 10SM CLR 07/02 A3015 RMK AO2 =
2017-02-21 21:35 METAR KFDK 220235Z AUTO 00000KT 10SM CLR 07/02 A3016 RMK AO2 =
2017-02-21 21:15 METAR KFDK 220215Z AUTO 00000KT 10SM CLR 06/01 A3017 RMK AO2 =
2017-02-21 19:47 METAR KFDK 220047Z 00000KT 10SM CLR 09/01 A3016 =
2017-02-21 18:50 METAR KFDK 212350Z 00000KT 10SM CLR 08/01 A3017 =
2017-02-21 17:47 METAR KFDK 212247Z 17005KT 10SM CLR 11/00 A3017 =
2017-02-21 16:47 METAR KFDK 212147Z 19006KT 10SM CLR 12/00 A3017 =
2017-02-21 15:54 METAR KFDK 212054Z 16008KT 10SM CLR 13/M01 A3018 =
2017-02-21 14:50 METAR KFDK 211950Z 18009KT 10SM CLR 13/M01 A3020 =
2017-02-21 13:47 METAR KFDK 211847Z 21010G17KT 10SM CLR 13/M01 A3023 =
2017-02-21 12:47 METAR KFDK 211747Z 21007KT 10SM SKC 12/M01 A3027 =

Support USWX by starting your Amazon purchase here.